Burin Sea — VCXN — position and weather

sailwx.info

Track history (hours):
 
Tides and Currents Weather Stations Pressure Air Temp Water Temp Dewpoint Dewpoint Depression Visibility Wind Speed Wind Dir Waves Ship Positions

Burin Sea

Last reported at 2014-Sep-23 22:12 UTC. Time now 2014-Sep-24 02:30 UTC.
Position N 47°32' W 052°34'.

Length 82 m; draft 5.4 m.

Type: Tug. MMSI: 316300000.

Date/timePositionNaut miles runAvg speedWind from/ knotsBaromVisibWave heightAir tempDewpointWater temp
2014-Sep-23 22:12N 47°32' W 052°34'6 7.8
2014-Sep-23 21:29N 47°34' W 052°42'0 0.0
2014-Sep-23 20:33N 47°34' W 052°42'0 0.0
2014-Sep-23 19:28N 47°34' W 052°42'0 0.0
2014-Sep-23 18:32N 47°34' W 052°42'0 0.0
2014-Sep-23 17:30N 47°34' W 052°42'0 0.0
2014-Sep-23 16:30N 47°34' W 052°42'0 0.0
2014-Sep-23 15:31N 47°34' W 052°42'0 0.0
2014-Sep-23 14:33N 47°34' W 052°42'0 0.4
2014-Sep-23 13:24N 47°34' W 052°41'  
2014-Sep-20 18:31N 47°32' W 052°31'7 0.9
2014-Sep-20 10:29N 47°34' W 052°42'0 0.4
2014-Sep-20 09:29N 47°34' W 052°42'0 0.0
2014-Sep-20 08:30N 47°34' W 052°42'0 0.0
2014-Sep-20 07:31N 47°34' W 052°42'0 0.0
2014-Sep-20 06:28N 47°34' W 052°42'0 0.0
2014-Sep-20 05:21N 47°34' W 052°42'0 0.0
2014-Sep-20 04:29N 47°34' W 052°42'  
2014-Sep-17 04:21N 47°23' W 051°57'1111.9
2014-Sep-17 03:25N 47°27' W 052°12'1111.9
2014-Sep-17 02:31N 47°31' W 052°27'1110.9
2014-Sep-17 01:33N 47°34' W 052°42'0 0.1
2014-Sep-17 00:22N 47°34' W 052°42'0 0.0
2014-Sep-16 23:28N 47°34' W 052°42'0 0.0
2014-Sep-16 15:19N 47°34' W 052°42'0 0.0
2014-Sep-16 14:25N 47°34' W 052°42'0 0.2
2014-Sep-16 13:20N 47°34' W 052°42'0 0.2
2014-Sep-16 12:27N 47°34' W 052°42'0 0.0
2014-Sep-16 11:33N 47°34' W 052°42'0 0.0
2014-Sep-16 10:25N 47°34' W 052°42'0 0.0
2014-Sep-16 09:32N 47°34' W 052°42'0 0.0
2014-Sep-16 08:32N 47°34' W 052°42'0 0.2
2014-Sep-16 07:29N 47°34' W 052°42'0 0.0
2014-Sep-16 06:30N 47°34' W 052°42'0 0.0
2014-Sep-16 05:30N 47°34' W 052°42'0 0.0
2014-Sep-16 04:28N 47°34' W 052°42'0 0.0
2014-Sep-16 03:29N 47°34' W 052°42'0 0.0
2014-Sep-16 02:29N 47°34' W 052°42'0 0.0
2014-Sep-16 01:33N 47°34' W 052°42'0 0.0
2014-Sep-16 00:34N 47°34' W 052°42'0 0.0
2014-Sep-15 23:28N 47°34' W 052°42'0 0.0
2014-Sep-15 22:29N 47°34' W 052°42'0 0.0
2014-Sep-15 21:30N 47°34' W 052°42'0 0.0
2014-Sep-15 20:27N 47°34' W 052°42'0 0.0
2014-Sep-15 19:29N 47°34' W 052°42'0 0.5
2014-Sep-15 18:29N 47°34' W 052°42'0 0.1
2014-Sep-15 17:33N 47°34' W 052°42'4 4.3
2014-Sep-15 16:31N 47°33' W 052°35'  
Track history (hours):
 
Tides and Currents Weather Stations Pressure Air Temp Water Temp Dewpoint Dewpoint Depression Visibility Wind Speed Wind Dir Waves Ship Positions

Burin Sea

Last reported at 2014-Sep-23 22:12 UTC. Time now 2014-Sep-24 02:30 UTC.
Position N 47°32' W 052°34'.

Length 82 m; draft 5.4 m.

Type: Tug. MMSI: 316300000.

Date/timePositionNaut miles runAvg speedWind from/ knotsBaromVisibWave heightAir tempDewpointWater temp
2014-Sep-23 22:12N 47°32' W 052°34'6 7.8
2014-Sep-23 21:29N 47°34' W 052°42'0 0.0
2014-Sep-23 20:33N 47°34' W 052°42'0 0.0
2014-Sep-23 19:28N 47°34' W 052°42'0 0.0
2014-Sep-23 18:32N 47°34' W 052°42'0 0.0
2014-Sep-23 17:30N 47°34' W 052°42'0 0.0
2014-Sep-23 16:30N 47°34' W 052°42'0 0.0
2014-Sep-23 15:31N 47°34' W 052°42'0 0.0
2014-Sep-23 14:33N 47°34' W 052°42'0 0.4
2014-Sep-23 13:24N 47°34' W 052°41'  
2014-Sep-20 18:31N 47°32' W 052°31'7 0.9
2014-Sep-20 10:29N 47°34' W 052°42'0 0.4
2014-Sep-20 09:29N 47°34' W 052°42'0 0.0
2014-Sep-20 08:30N 47°34' W 052°42'0 0.0
2014-Sep-20 07:31N 47°34' W 052°42'0 0.0
2014-Sep-20 06:28N 47°34' W 052°42'0 0.0
2014-Sep-20 05:21N 47°34' W 052°42'0 0.0
2014-Sep-20 04:29N 47°34' W 052°42'  
2014-Sep-17 04:21N 47°23' W 051°57'1111.9
2014-Sep-17 03:25N 47°27' W 052°12'1111.9
2014-Sep-17 02:31N 47°31' W 052°27'1110.9
2014-Sep-17 01:33N 47°34' W 052°42'0 0.1
2014-Sep-17 00:22N 47°34' W 052°42'0 0.0
2014-Sep-16 23:28N 47°34' W 052°42'0 0.0
2014-Sep-16 15:19N 47°34' W 052°42'0 0.0
2014-Sep-16 14:25N 47°34' W 052°42'0 0.2
2014-Sep-16 13:20N 47°34' W 052°42'0 0.2
2014-Sep-16 12:27N 47°34' W 052°42'0 0.0
2014-Sep-16 11:33N 47°34' W 052°42'0 0.0
2014-Sep-16 10:25N 47°34' W 052°42'0 0.0
2014-Sep-16 09:32N 47°34' W 052°42'0 0.0
2014-Sep-16 08:32N 47°34' W 052°42'0 0.2
2014-Sep-16 07:29N 47°34' W 052°42'0 0.0
2014-Sep-16 06:30N 47°34' W 052°42'0 0.0
2014-Sep-16 05:30N 47°34' W 052°42'0 0.0
2014-Sep-16 04:28N 47°34' W 052°42'0 0.0
2014-Sep-16 03:29N 47°34' W 052°42'0 0.0
2014-Sep-16 02:29N 47°34' W 052°42'0 0.0
2014-Sep-16 01:33N 47°34' W 052°42'0 0.0
2014-Sep-16 00:34N 47°34' W 052°42'0 0.0
2014-Sep-15 23:28N 47°34' W 052°42'0 0.0
2014-Sep-15 22:29N 47°34' W 052°42'0 0.0
2014-Sep-15 21:30N 47°34' W 052°42'0 0.0
2014-Sep-15 20:27N 47°34' W 052°42'0 0.0
2014-Sep-15 19:29N 47°34' W 052°42'0 0.5
2014-Sep-15 18:29N 47°34' W 052°42'0 0.1
2014-Sep-15 17:33N 47°34' W 052°42'4 4.3
2014-Sep-15 16:31N 47°33' W 052°35'  

Dump ship's entire track history